Time;durP1;ratioP1;P1;durP2;ratioP2;P2;SDS_P1;SDS_P2;PMS_P1;PMS_P2;Temp;Humidity;BMP_temperature;BMP_pressure;BME280_temperature;BME280_humidity;BME280_pressure;Samples;Min_cycle;Max_cycle;Signal;HPM_P1;HPM_P2
2022/05/26 00:02:17;;;;;;;5.03;1.20;;;;;;;;;;5076778;28;20247;-87
2022/05/26 00:04:46;;;;;;;1.13;0.83;;;;;;;;;;5079392;28;20209;-87
2022/05/26 00:07:13;;;;;;;1.47;0.90;;;;;;;;;;5078200;28;20239;-88
2022/05/26 00:09:40;;;;;;;0.80;0.80;;;;;;;;;;5078366;28;20201;-88
2022/05/26 00:12:08;;;;;;;1.23;0.80;;;;;;;;;;5077792;28;20237;-88
2022/05/26 00:14:35;;;;;;;1.87;0.90;;;;;;;;;;5077738;28;20575;-87
2022/05/26 00:17:02;;;;;;;1.57;0.93;;;;;;;;;;5076728;28;20233;-87
2022/05/26 00:19:29;;;;;;;2.77;1.10;;;;;;;;;;5076529;28;20229;-87
2022/05/26 00:21:58;;;;;;;1.20;0.80;;;;;;;;;;5088172;28;20328;-87
2022/05/26 00:24:25;;;;;;;1.70;0.77;;;;;;;;;;5077385;28;20571;-88
2022/05/26 00:26:52;;;;;;;1.33;0.77;;;;;;;;;;5076136;28;20659;-87
2022/05/26 00:29:19;;;;;;;4.17;1.00;;;;;;;;;;5076136;28;20574;-88
2022/05/26 00:31:47;;;;;;;1.57;1.00;;;;;;;;;;5076287;28;20236;-87
2022/05/26 00:34:14;;;;;;;1.23;0.80;;;;;;;;;;5076767;28;20206;-88
2022/05/26 00:36:42;;;;;;;0.77;0.70;;;;;;;;;;5075921;28;20240;-87
2022/05/26 00:39:12;;;;;;;1.70;0.90;;;;;;;;;;5075248;28;20936;-87
2022/05/26 00:41:40;;;;;;;0.90;0.90;;;;;;;;;;5074034;28;20236;-87
2022/05/26 00:44:07;;;;;;;2.00;0.97;;;;;;;;;;5074356;28;20240;-87
2022/05/26 00:46:36;;;;;;;1.60;1.03;;;;;;;;;;5074393;28;20259;-88
2022/05/26 00:49:04;;;;;;;2.03;0.80;;;;;;;;;;5074471;28;20212;-87
2022/05/26 00:51:33;;;;;;;1.27;0.97;;;;;;;;;;5074689;28;20251;-88
2022/05/26 00:54:01;;;;;;;1.80;0.90;;;;;;;;;;5083506;28;20193;-87
2022/05/26 00:56:32;;;;;;;1.20;0.90;;;;;;;;;;5074752;28;20240;-88
2022/05/26 00:59:01;;;;;;;1.60;0.70;;;;;;;;;;5074778;28;20200;-87
2022/05/26 01:01:29;;;;;;;1.53;0.83;;;;;;;;;;5074533;28;20237;-89
2022/05/26 01:04:00;;;;;;;1.63;0.80;;;;;;;;;;5073838;28;20728;-88
2022/05/26 01:09:30;;;;;;;2.28;1.00;;;;;;;;;;5053018;28;20188;-88
2022/05/26 01:11:59;;;;;;;1.70;0.90;;;;;;;;;;5053360;28;20245;-88
2022/05/26 01:14:27;;;;;;;1.50;1.50;;;;;;;;;;5059779;28;20213;-88
2022/05/26 01:17:02;;;;;;;1.90;0.90;;;;;;;;;;5073027;28;20295;-87
2022/05/26 01:19:51;;;;;;;1.67;0.87;;;;;;;;;;5073528;28;20216;-87
2022/05/26 01:22:25;;;;;;;1.00;0.93;;;;;;;;;;5072842;28;20229;-87
2022/05/26 01:25:03;;;;;;;0.83;0.83;;;;;;;;;;5074084;28;20670;-88
2022/05/26 01:27:35;;;;;;;1.00;0.90;;;;;;;;;;5073839;28;20237;-87
2022/05/26 01:30:06;;;;;;;0.60;0.60;;;;;;;;;;5073883;28;20198;-88
2022/05/26 01:32:42;;;;;;;0.93;0.93;;;;;;;;;;5077649;28;20221;-87
2022/05/26 01:35:14;;;;;;;0.90;0.80;;;;;;;;;;5076652;28;20197;-88
2022/05/26 01:37:44;;;;;;;0.90;0.90;;;;;;;;;;5077387;28;20212;-87
2022/05/26 01:40:15;;;;;;;2.57;0.90;;;;;;;;;;5077130;28;20277;-87
2022/05/26 01:42:46;;;;;;;1.87;0.80;;;;;;;;;;5077740;28;20230;-88
2022/05/26 01:45:17;;;;;;;0.60;0.60;;;;;;;;;;5077635;28;20182;-87
2022/05/26 01:47:50;;;;;;;3.30;0.97;;;;;;;;;;5078970;28;20209;-87
2022/05/26 01:50:22;;;;;;;4.13;1.27;;;;;;;;;;5078705;28;20233;-87
2022/05/26 01:52:56;;;;;;;2.70;1.13;;;;;;;;;;5079579;28;20233;-87
2022/05/26 01:55:26;;;;;;;1.27;0.90;;;;;;;;;;5079334;28;20236;-87
2022/05/26 01:57:56;;;;;;;2.30;0.87;;;;;;;;;;5079371;28;20193;-87
2022/05/26 02:00:23;;;;;;;1.80;0.90;;;;;;;;;;5080187;28;20231;-87
2022/05/26 02:02:55;;;;;;;1.53;1.13;;;;;;;;;;5080317;28;20308;-87
2022/05/26 02:05:24;;;;;;;2.03;0.90;;;;;;;;;;5079958;28;20339;-87
2022/05/26 02:07:52;;;;;;;3.37;1.10;;;;;;;;;;5080424;28;20206;-87
2022/05/26 02:10:22;;;;;;;0.80;0.80;;;;;;;;;;5078127;28;20233;-87
2022/05/26 02:12:51;;;;;;;1.63;0.80;;;;;;;;;;5078504;28;20225;-86
2022/05/26 02:15:20;;;;;;;0.80;0.80;;;;;;;;;;5080460;28;20663;-88
2022/05/26 02:17:48;;;;;;;1.43;0.90;;;;;;;;;;5078297;28;20201;-87
2022/05/26 02:20:18;;;;;;;0.83;0.80;;;;;;;;;;5077843;28;20233;-87
2022/05/26 02:22:49;;;;;;;0.93;0.87;;;;;;;;;;5077884;28;20282;-87
2022/05/26 02:25:17;;;;;;;0.90;0.90;;;;;;;;;;5077087;28;20836;-87
2022/05/26 02:27:45;;;;;;;5.53;1.17;;;;;;;;;;5077386;28;20205;-87
2022/05/26 02:30:13;;;;;;;0.70;0.70;;;;;;;;;;5078086;28;20201;-87
2022/05/26 02:32:43;;;;;;;1.60;1.00;;;;;;;;;;5078576;28;20251;-87
2022/05/26 02:35:13;;;;;;;1.50;0.90;;;;;;;;;;5078362;28;20236;-87
2022/05/26 02:37:42;;;;;;;0.60;0.60;;;;;;;;;;5077487;28;20209;-87
2022/05/26 02:40:10;;;;;;;1.20;0.80;;;;;;;;;;5076958;28;20547;-87
2022/05/26 02:42:38;;;;;;;3.53;1.00;;;;;;;;;;5075158;28;20251;-86
2022/05/26 02:45:05;;;;;;;3.17;1.00;;;;;;;;;;5076019;28;20662;-86
2022/05/26 02:47:38;;;;;;;1.20;0.87;;;;;;;;;;5076792;28;20209;-86
2022/05/26 02:50:12;;;;;;;4.87;0.80;;;;;;;;;;5076691;28;20701;-87
2022/05/26 02:52:43;;;;;;;2.23;0.93;;;;;;;;;;5077191;28;20225;-86
2022/05/26 02:55:14;;;;;;;3.40;0.93;;;;;;;;;;5077702;28;20202;-87
2022/05/26 02:57:44;;;;;;;1.10;1.00;;;;;;;;;;5078055;28;20735;-86
2022/05/26 03:00:15;;;;;;;0.70;0.70;;;;;;;;;;5083311;22;20232;-85
2022/05/26 03:02:46;;;;;;;1.03;0.83;;;;;;;;;;5059976;28;20226;-85
2022/05/26 03:05:16;;;;;;;3.07;1.13;;;;;;;;;;5053648;28;20241;-84
2022/05/26 03:07:46;;;;;;;4.10;1.07;;;;;;;;;;5054027;28;20198;-85
2022/05/26 03:10:15;;;;;;;2.77;0.90;;;;;;;;;;5053345;28;20233;-84
2022/05/26 03:12:43;;;;;;;2.40;0.87;;;;;;;;;;5053963;28;20856;-84
2022/05/26 03:15:10;;;;;;;3.17;0.87;;;;;;;;;;5053699;28;20202;-85
2022/05/26 03:17:37;;;;;;;0.90;0.83;;;;;;;;;;5054452;28;20202;-85
2022/05/26 03:20:05;;;;;;;1.13;1.00;;;;;;;;;;5054072;28;20298;-85
2022/05/26 03:22:32;;;;;;;0.87;0.87;;;;;;;;;;5054238;28;20764;-86
2022/05/26 03:25:00;;;;;;;1.07;0.80;;;;;;;;;;5053938;28;20198;-85
2022/05/26 03:27:28;;;;;;;1.67;0.90;;;;;;;;;;5054639;28;20217;-85
2022/05/26 03:29:56;;;;;;;3.47;0.90;;;;;;;;;;5053857;28;20230;-85
2022/05/26 03:32:23;;;;;;;1.27;0.90;;;;;;;;;;5054452;28;20626;-85
2022/05/26 03:43:02;;;;;;;2.90;1.00;;;;;;;;;;5054918;28;20287;-85
2022/05/26 03:45:30;;;;;;;2.90;0.93;;;;;;;;;;5054815;28;20228;-86
2022/05/26 03:47:57;;;;;;;2.03;1.00;;;;;;;;;;5055021;28;20662;-85
2022/05/26 03:50:24;;;;;;;2.03;1.43;;;;;;;;;;5054557;28;20238;-86
2022/05/26 03:52:52;;;;;;;1.43;0.93;;;;;;;;;;5077789;28;20194;-86
2022/05/26 03:55:20;;;;;;;1.50;1.27;;;;;;;;;;5078200;28;20214;-86
2022/05/26 03:57:47;;;;;;;1.00;1.00;;;;;;;;;;5062141;28;20204;-85
2022/05/26 04:00:16;;;;;;;9.33;1.13;;;;;;;;;;5056350;28;20240;-86
2022/05/26 04:02:43;;;;;;;0.80;0.60;;;;;;;;;;5056350;28;20230;-86
2022/05/26 04:05:12;;;;;;;2.23;0.90;;;;;;;;;;5058064;28;20205;-85
2022/05/26 04:07:40;;;;;;;1.47;0.80;;;;;;;;;;5057866;28;20210;-86
2022/05/26 04:10:09;;;;;;;1.23;1.00;;;;;;;;;;5057083;28;20312;-86
2022/05/26 04:12:38;;;;;;;1.40;0.90;;;;;;;;;;5056469;28;20211;-86
2022/05/26 04:15:06;;;;;;;1.07;0.83;;;;;;;;;;5050023;28;20217;-85
2022/05/26 04:17:34;;;;;;;0.87;0.87;;;;;;;;;;5070342;28;20198;-86
2022/05/26 04:20:01;;;;;;;0.67;0.67;;;;;;;;;;5060872;28;20234;-85
2022/05/26 04:22:28;;;;;;;1.03;0.93;;;;;;;;;;5057353;28;20236;-85
2022/05/26 04:24:57;;;;;;;2.83;1.00;;;;;;;;;;5054819;28;20202;-85
2022/05/26 04:27:25;;;;;;;1.33;1.00;;;;;;;;;;5054318;28;20243;-85
2022/05/26 04:29:54;;;;;;;1.60;0.90;;;;;;;;;;5053184;28;20226;-86
2022/05/26 04:32:22;;;;;;;0.80;0.80;;;;;;;;;;5052675;28;20218;-85
2022/05/26 04:34:50;;;;;;;2.00;1.10;;;;;;;;;;5052894;28;20677;-86
2022/05/26 04:37:17;;;;;;;2.33;0.90;;;;;;;;;;5052388;28;20701;-85
2022/05/26 04:39:44;;;;;;;1.37;0.90;;;;;;;;;;5053204;28;20233;-85
2022/05/26 04:42:11;;;;;;;1.13;0.90;;;;;;;;;;5052574;28;20746;-85
2022/05/26 04:44:39;;;;;;;1.53;0.80;;;;;;;;;;5052673;28;20585;-85
2022/05/26 04:47:08;;;;;;;1.77;1.40;;;;;;;;;;5052267;28;20238;-86
2022/05/26 04:49:37;;;;;;;1.40;0.90;;;;;;;;;;5053017;28;20230;-85
2022/05/26 04:52:05;;;;;;;1.33;1.20;;;;;;;;;;5052360;28;20257;-85
2022/05/26 04:54:32;;;;;;;2.40;1.00;;;;;;;;;;5053054;28;20202;-85
2022/05/26 04:57:00;;;;;;;0.70;0.70;;;;;;;;;;5052462;28;20631;-86
2022/05/26 04:59:27;;;;;;;1.07;0.83;;;;;;;;;;5052510;28;20237;-85
2022/05/26 05:01:54;;;;;;;1.47;0.83;;;;;;;;;;5052263;28;20244;-85
2022/05/26 05:04:24;;;;;;;0.70;0.70;;;;;;;;;;5052617;28;20209;-86
2022/05/26 05:06:51;;;;;;;1.40;1.10;;;;;;;;;;5054269;28;20288;-85
2022/05/26 05:09:19;;;;;;;2.00;1.00;;;;;;;;;;5056869;28;20237;-85
2022/05/26 05:11:46;;;;;;;1.23;1.03;;;;;;;;;;5055904;28;20233;-84
2022/05/26 05:14:13;;;;;;;0.80;0.80;;;;;;;;;;5056119;28;20213;-84
2022/05/26 05:16:43;;;;;;;1.00;0.80;;;;;;;;;;5055694;28;20233;-88
2022/05/26 05:19:10;;;;;;;3.13;1.60;;;;;;;;;;5058492;28;20254;-86
2022/05/26 05:21:41;;;;;;;1.33;0.93;;;;;;;;;;5060536;28;20233;-85
2022/05/26 05:24:09;;;;;;;0.87;0.87;;;;;;;;;;5055636;28;20202;-84
2022/05/26 05:26:40;;;;;;;2.70;0.83;;;;;;;;;;5055429;28;20237;-85
2022/05/26 05:29:08;;;;;;;0.97;0.80;;;;;;;;;;5056438;28;20226;-84
2022/05/26 05:31:39;;;;;;;0.90;0.87;;;;;;;;;;5055446;28;20602;-85
2022/05/26 05:34:09;;;;;;;2.43;0.80;;;;;;;;;;5055853;28;20208;-84
2022/05/26 05:36:37;;;;;;;1.73;0.63;;;;;;;;;;5055306;28;20230;-83
2022/05/26 05:39:05;;;;;;;1.37;0.93;;;;;;;;;;5056233;28;20221;-84
2022/05/26 05:41:33;;;;;;;1.90;0.93;;;;;;;;;;5055256;28;20241;-84
2022/05/26 05:44:01;;;;;;;0.73;0.73;;;;;;;;;;5055349;28;20234;-84
2022/05/26 05:46:34;;;;;;;1.03;0.90;;;;;;;;;;5055014;28;20860;-85
2022/05/26 05:49:01;;;;;;;1.00;0.90;;;;;;;;;;5055338;28;20713;-84
2022/05/26 05:51:28;;;;;;;0.87;0.80;;;;;;;;;;5054995;28;20237;-84
2022/05/26 05:53:55;;;;;;;1.17;0.83;;;;;;;;;;5055435;28;20252;-83
2022/05/26 05:56:24;;;;;;;0.70;0.70;;;;;;;;;;5054885;28;20234;-84
2022/05/26 05:58:52;;;;;;;0.97;0.70;;;;;;;;;;5055490;28;20229;-83
2022/05/26 06:01:19;;;;;;;2.60;1.00;;;;;;;;;;5055111;28;20241;-84
2022/05/26 06:03:47;;;;;;;1.53;0.90;;;;;;;;;;5047395;28;20227;-83
2022/05/26 06:06:14;;;;;;;1.13;0.80;;;;;;;;;;5053904;28;20256;-83
2022/05/26 06:08:42;;;;;;;0.73;0.73;;;;;;;;;;5065721;28;20542;-83
2022/05/26 06:11:09;;;;;;;0.67;0.63;;;;;;;;;;5074306;28;20705;-82
2022/05/26 06:13:37;;;;;;;1.80;0.70;;;;;;;;;;5074325;28;20192;-83
2022/05/26 06:16:04;;;;;;;0.67;0.57;;;;;;;;;;5074294;28;20233;-85
2022/05/26 06:18:33;;;;;;;1.33;0.70;;;;;;;;;;5072695;28;20646;-84
2022/05/26 06:21:03;;;;;;;1.37;1.03;;;;;;;;;;5074856;28;20237;-81
2022/05/26 06:23:30;;;;;;;0.93;0.80;;;;;;;;;;5049674;28;20226;-82
2022/05/26 06:25:58;;;;;;;0.90;0.80;;;;;;;;;;5056879;28;20233;-82
2022/05/26 06:31:11;;;;;;;0.60;0.60;;;;;;;;;;5075384;28;20247;-83
2022/05/26 06:39:07;;;;;;;1.55;1.00;;;;;;;;;;5075758;28;20216;-82
2022/05/26 06:44:19;;;;;;;0.80;0.80;;;;;;;;;;5062991;28;20288;-81
2022/05/26 06:46:48;;;;;;;2.05;1.13;;;;;;;;;;5059648;28;20750;-79
2022/05/26 06:49:15;;;;;;;1.08;0.95;;;;;;;;;;5054349;28;20230;-79
2022/05/26 06:51:43;;;;;;;1.35;1.10;;;;;;;;;;5052961;28;20222;-79
2022/05/26 06:54:10;;;;;;;1.35;1.20;;;;;;;;;;5053027;28;20205;-79
2022/05/26 06:56:38;;;;;;;0.80;0.80;;;;;;;;;;5052685;28;20226;-80
2022/05/26 06:59:05;;;;;;;1.92;0.75;;;;;;;;;;5054845;28;20237;-79
2022/05/26 07:01:32;;;;;;;2.17;0.85;;;;;;;;;;5053907;28;20676;-79
2022/05/26 07:04:01;;;;;;;2.83;0.73;;;;;;;;;;5053944;28;20229;-79
2022/05/26 07:06:28;;;;;;;0.75;0.75;;;;;;;;;;5053942;28;20240;-78
2022/05/26 07:08:56;;;;;;;0.88;0.85;;;;;;;;;;5053388;28;20250;-79
2022/05/26 07:11:23;;;;;;;0.70;0.70;;;;;;;;;;5053704;28;20260;-80
2022/05/26 07:13:51;;;;;;;0.80;0.80;;;;;;;;;;5054288;28;20228;-82
2022/05/26 07:16:18;;;;;;;1.17;0.73;;;;;;;;;;5055234;28;20236;-81
2022/05/26 07:18:45;;;;;;;1.42;0.88;;;;;;;;;;5054931;28;20229;-81
2022/05/26 07:21:14;;;;;;;1.60;1.00;;;;;;;;;;5061567;28;20233;-80
2022/05/26 07:23:41;;;;;;;0.65;0.65;;;;;;;;;;5053507;28;20241;-80
2022/05/26 07:26:09;;;;;;;0.73;0.73;;;;;;;;;;5053523;28;20272;-79
2022/05/26 07:28:37;;;;;;;0.98;0.75;;;;;;;;;;5054948;28;20233;-81
2022/05/26 07:31:04;;;;;;;3.67;0.80;;;;;;;;;;5052890;28;20237;-80
2022/05/26 07:33:32;;;;;;;1.40;0.60;;;;;;;;;;5052947;28;20205;-79
2022/05/26 07:35:59;;;;;;;1.38;0.50;;;;;;;;;;5051934;28;20238;-81
2022/05/26 07:41:18;;;;;;;0.82;0.68;;;;;;;;;;5058669;28;20279;-79
2022/05/26 07:43:47;;;;;;;1.75;0.63;;;;;;;;;;5065624;28;20206;-81
2022/05/26 07:46:14;;;;;;;2.90;0.75;;;;;;;;;;5037757;28;20309;-81
2022/05/26 07:48:41;;;;;;;2.60;0.77;;;;;;;;;;5037645;28;20222;-81
2022/05/26 07:51:08;;;;;;;1.10;0.90;;;;;;;;;;5037417;28;20234;-80
2022/05/26 07:53:37;;;;;;;1.60;0.88;;;;;;;;;;5037369;28;20559;-81
2022/05/26 07:56:04;;;;;;;2.03;0.90;;;;;;;;;;5034406;28;20234;-82
2022/05/26 07:58:32;;;;;;;0.80;0.68;;;;;;;;;;5034657;28;20582;-83
2022/05/26 08:01:01;;;;;;;0.75;0.50;;;;;;;;;;5033152;28;20230;-82
2022/05/26 08:03:28;;;;;;;1.42;0.82;;;;;;;;;;5033653;28;20230;-82
2022/05/26 08:05:55;;;;;;;2.30;0.80;;;;;;;;;;5034138;28;20238;-82
2022/05/26 08:08:22;;;;;;;1.77;0.70;;;;;;;;;;5032397;28;20809;-82
2022/05/26 08:10:51;;;;;;;0.63;0.63;;;;;;;;;;5033837;28;20239;-82
2022/05/26 08:13:18;;;;;;;1.83;0.80;;;;;;;;;;5035425;28;20186;-82
2022/05/26 08:15:45;;;;;;;2.42;0.80;;;;;;;;;;5043464;28;20240;-82
2022/05/26 08:18:12;;;;;;;2.05;0.60;;;;;;;;;;5052466;28;20316;-83
2022/05/26 08:20:39;;;;;;;1.58;0.77;;;;;;;;;;5049737;28;20240;-82
2022/05/26 08:23:06;;;;;;;1.55;0.80;;;;;;;;;;5054607;28;20236;-82
2022/05/26 08:25:34;;;;;;;2.42;0.80;;;;;;;;;;5053124;28;20238;-81
2022/05/26 08:28:03;;;;;;;1.48;0.93;;;;;;;;;;5054154;28;20202;-82
2022/05/26 08:30:32;;;;;;;1.38;0.60;;;;;;;;;;5053321;28;20682;-83
2022/05/26 08:32:59;;;;;;;0.85;0.60;;;;;;;;;;5053591;28;20624;-83
2022/05/26 08:35:26;;;;;;;3.03;0.60;;;;;;;;;;5053578;28;20233;-81
2022/05/26 08:37:53;;;;;;;1.10;0.80;;;;;;;;;;5054221;28;20202;-81
2022/05/26 08:40:25;;;;;;;1.15;0.80;;;;;;;;;;5032251;28;20784;-82
2022/05/26 08:42:52;;;;;;;3.13;1.05;;;;;;;;;;5033277;28;20852;-84
2022/05/26 08:45:21;;;;;;;0.43;0.43;;;;;;;;;;5031625;28;20234;-83
2022/05/26 08:47:51;;;;;;;0.55;0.55;;;;;;;;;;5051035;28;20213;-83
2022/05/26 08:50:19;;;;;;;1.48;0.60;;;;;;;;;;5065723;28;20232;-82
2022/05/26 08:52:47;;;;;;;1.95;0.90;;;;;;;;;;5072994;28;20212;-84
2022/05/26 08:55:16;;;;;;;1.30;0.73;;;;;;;;;;5072224;28;20627;-82
2022/05/26 08:57:44;;;;;;;0.98;0.45;;;;;;;;;;5075282;28;20254;-81
2022/05/26 09:00:13;;;;;;;0.85;0.70;;;;;;;;;;5062087;28;20229;-81
2022/05/26 09:02:42;;;;;;;0.60;0.35;;;;;;;;;;5055977;28;20213;-84
2022/05/26 09:05:12;;;;;;;0.80;0.77;;;;;;;;;;5052068;28;20214;-84
2022/05/26 09:13:14;;;;;;;1.15;0.63;;;;;;;;;;5052236;28;20712;-83
2022/05/26 09:15:42;;;;;;;1.40;0.88;;;;;;;;;;5052292;28;20230;-83
2022/05/26 09:18:15;;;;;;;2.60;0.90;;;;;;;;;;5053830;28;20206;-84
2022/05/26 09:20:43;;;;;;;0.73;0.65;;;;;;;;;;5046378;28;20295;-83
2022/05/26 09:23:12;;;;;;;1.90;0.80;;;;;;;;;;5051373;28;20213;-87
2022/05/26 09:25:44;;;;;;;2.80;1.00;;;;;;;;;;5052457;28;20308;-84
2022/05/26 09:28:11;;;;;;;1.65;0.90;;;;;;;;;;5052090;28;20187;-83
2022/05/26 09:30:39;;;;;;;1.23;0.80;;;;;;;;;;5052373;28;20241;-84
2022/05/26 09:33:19;;;;;;;1.88;1.00;;;;;;;;;;5053487;28;20202;-85
2022/05/26 09:35:47;;;;;;;1.45;0.90;;;;;;;;;;5050201;28;20230;-83
2022/05/26 09:38:18;;;;;;;3.83;1.00;;;;;;;;;;5050502;28;20200;-84
2022/05/26 09:40:46;;;;;;;0.82;0.82;;;;;;;;;;5049987;28;20605;-83
2022/05/26 09:43:21;;;;;;;2.72;1.45;;;;;;;;;;5050549;28;20210;-85
2022/05/26 09:45:49;;;;;;;1.13;0.60;;;;;;;;;;5029854;28;20694;-83
2022/05/26 09:48:19;;;;;;;1.50;1.15;;;;;;;;;;5030337;28;20237;-83
2022/05/26 09:50:50;;;;;;;3.67;1.15;;;;;;;;;;5048432;28;20236;-83
2022/05/26 09:53:29;;;;;;;1.73;0.80;;;;;;;;;;5052992;28;20187;-84
2022/05/26 09:55:56;;;;;;;1.08;0.80;;;;;;;;;;5053727;28;20233;-83
2022/05/26 09:58:29;;;;;;;1.00;0.60;;;;;;;;;;5053610;28;20222;-84
2022/05/26 10:00:57;;;;;;;1.20;0.80;;;;;;;;;;5053038;28;20279;-84
2022/05/26 10:03:31;;;;;;;0.85;0.63;;;;;;;;;;5054286;28;20230;-84
2022/05/26 10:06:08;;;;;;;1.08;0.55;;;;;;;;;;5053705;28;20229;-84
2022/05/26 10:08:39;;;;;;;0.60;0.43;;;;;;;;;;5053920;28;20228;-84
2022/05/26 10:11:09;;;;;;;1.45;0.60;;;;;;;;;;5052057;28;20265;-84
2022/05/26 10:13:46;;;;;;;1.90;0.60;;;;;;;;;;5033895;28;20199;-85
2022/05/26 10:16:18;;;;;;;1.55;0.57;;;;;;;;;;5034662;28;20234;-86
2022/05/26 10:18:57;;;;;;;0.40;0.40;;;;;;;;;;5053358;28;20706;-85
2022/05/26 10:21:37;;;;;;;1.83;0.98;;;;;;;;;;5053308;28;20241;-85
2022/05/26 10:24:15;;;;;;;1.67;0.60;;;;;;;;;;5053696;28;20206;-86
2022/05/26 10:26:47;;;;;;;0.80;0.65;;;;;;;;;;5053989;28;20261;-85
2022/05/26 10:29:31;;;;;;;1.88;0.60;;;;;;;;;;5054569;28;20276;-87
2022/05/26 10:32:12;;;;;;;1.08;0.50;;;;;;;;;;5045374;28;20226;-86
2022/05/26 10:34:48;;;;;;;1.45;1.27;;;;;;;;;;5059823;28;20212;-85
2022/05/26 10:37:23;;;;;;;1.83;0.75;;;;;;;;;;5059653;28;20229;-85
2022/05/26 10:40:05;;;;;;;0.88;0.70;;;;;;;;;;5050036;28;20729;-84
2022/05/26 10:42:33;;;;;;;2.80;0.70;;;;;;;;;;5054255;28;20268;-87
2022/05/26 10:45:06;;;;;;;2.10;0.50;;;;;;;;;;5051949;28;20639;-86
2022/05/26 10:47:36;;;;;;;1.08;0.40;;;;;;;;;;5034422;28;20345;-85
2022/05/26 10:50:06;;;;;;;1.25;0.45;;;;;;;;;;5033822;28;20575;-86
2022/05/26 10:52:38;;;;;;;1.02;0.47;;;;;;;;;;5034169;28;20929;-87
2022/05/26 10:55:09;;;;;;;1.67;0.68;;;;;;;;;;5034543;28;20193;-87
2022/05/26 10:57:39;;;;;;;1.83;0.50;;;;;;;;;;5034074;28;20191;-88
2022/05/26 11:00:07;;;;;;;0.32;0.32;;;;;;;;;;5033151;28;20666;-86
2022/05/26 11:02:37;;;;;;;4.57;1.20;;;;;;;;;;5033966;28;20270;-87
2022/05/26 11:05:06;;;;;;;3.55;0.90;;;;;;;;;;5032294;28;20235;-85
2022/05/26 11:07:37;;;;;;;2.00;0.63;;;;;;;;;;5033815;28;20269;-85
2022/05/26 11:10:07;;;;;;;1.48;0.70;;;;;;;;;;5032606;28;20223;-85
2022/05/26 11:12:37;;;;;;;0.98;0.90;;;;;;;;;;5050604;28;20198;-86
2022/05/26 11:17:54;;;;;;;0.52;0.52;;;;;;;;;;5052143;28;20291;-82
2022/05/26 11:20:23;;;;;;;0.98;0.57;;;;;;;;;;5052240;28;20240;-85
2022/05/26 11:22:53;;;;;;;0.57;0.50;;;;;;;;;;5053138;28;20205;-87
2022/05/26 11:25:24;;;;;;;2.45;0.60;;;;;;;;;;5053159;28;20573;-86
2022/05/26 11:27:54;;;;;;;1.05;0.85;;;;;;;;;;5053639;28;20224;-84
2022/05/26 11:36:09;;;;;;;0.43;0.40;;;;;;;;;;5053375;28;20260;-84
2022/05/26 11:38:42;;;;;;;0.68;0.50;;;;;;;;;;5053790;28;20225;-84
2022/05/26 11:41:10;;;;;;;0.77;0.73;;;;;;;;;;5052585;28;20240;-85
2022/05/26 11:43:41;;;;;;;0.93;0.28;;;;;;;;;;5053494;28;20206;-84
2022/05/26 11:46:09;;;;;;;0.80;0.70;;;;;;;;;;5053327;28;20237;-83
2022/05/26 11:48:41;;;;;;;1.13;0.70;;;;;;;;;;5051656;28;20237;-86
2022/05/26 11:51:23;;;;;;;0.50;0.40;;;;;;;;;;5052148;28;20245;-85
2022/05/26 11:53:52;;;;;;;1.42;0.60;;;;;;;;;;5052045;28;20209;-84
2022/05/26 11:56:38;;;;;;;1.17;0.60;;;;;;;;;;5052850;28;20609;-83
2022/05/26 11:59:21;;;;;;;1.67;0.55;;;;;;;;;;5052731;28;20237;-86
2022/05/26 12:01:49;;;;;;;0.57;0.50;;;;;;;;;;5051996;28;20248;-84
2022/05/26 12:04:25;;;;;;;0.98;0.43;;;;;;;;;;5052671;28;20260;-84
2022/05/26 12:06:56;;;;;;;1.45;0.40;;;;;;;;;;5051811;28;20249;-85
2022/05/26 12:09:30;;;;;;;1.17;1.13;;;;;;;;;;5052488;28;20230;-85
2022/05/26 12:11:59;;;;;;;2.72;0.85;;;;;;;;;;5052546;28;20283;-83
2022/05/26 12:14:28;;;;;;;0.30;0.22;;;;;;;;;;5063008;28;20216;-86
2022/05/26 12:17:10;;;;;;;0.73;0.68;;;;;;;;;;5051841;28;20245;-85
2022/05/26 12:19:40;;;;;;;0.98;0.60;;;;;;;;;;5052110;28;20244;-85
2022/05/26 12:22:15;;;;;;;0.80;0.68;;;;;;;;;;5052174;28;20233;-85
2022/05/26 12:25:06;;;;;;;1.67;0.90;;;;;;;;;;5053001;28;20320;-83
2022/05/26 12:27:54;;;;;;;1.65;1.52;;;;;;;;;;5053130;28;20214;-85
2022/05/26 12:30:33;;;;;;;1.90;1.60;;;;;;;;;;5052200;28;20704;-85
2022/05/26 12:33:01;;;;;;;0.63;0.63;;;;;;;;;;5052009;28;20236;-85
2022/05/26 12:35:32;;;;;;;1.10;0.93;;;;;;;;;;5050762;28;20221;-82
2022/05/26 12:38:03;;;;;;;1.30;1.20;;;;;;;;;;5051319;28;20209;-85
2022/05/26 12:40:51;;;;;;;0.75;0.73;;;;;;;;;;5051349;28;20234;-86
2022/05/26 12:43:27;;;;;;;0.50;0.50;;;;;;;;;;5052044;28;20191;-86
2022/05/26 12:45:55;;;;;;;1.33;0.88;;;;;;;;;;5031542;28;20249;-84
2022/05/26 12:48:42;;;;;;;1.38;1.00;;;;;;;;;;5031683;28;20211;-85
2022/05/26 12:51:11;;;;;;;3.10;2.80;;;;;;;;;;5038936;28;20236;-84
2022/05/26 12:53:39;;;;;;;2.83;1.98;;;;;;;;;;5052043;28;20634;-84
2022/05/26 12:56:11;;;;;;;3.05;1.00;;;;;;;;;;5051924;28;20997;-84
2022/05/26 12:58:40;;;;;;;2.63;0.80;;;;;;;;;;5051189;28;20287;-84
2022/05/26 13:01:12;;;;;;;1.83;1.13;;;;;;;;;;5051347;28;20230;-83
2022/05/26 13:03:40;;;;;;;0.75;0.60;;;;;;;;;;5053381;28;20205;-84
2022/05/26 13:06:08;;;;;;;1.75;0.75;;;;;;;;;;5054216;28;20253;-85
2022/05/26 13:08:42;;;;;;;1.10;1.00;;;;;;;;;;5052637;28;20752;-81
2022/05/26 13:11:12;;;;;;;1.38;1.00;;;;;;;;;;5054427;28;20721;-82
2022/05/26 13:13:41;;;;;;;3.63;1.15;;;;;;;;;;5053467;28;20204;-82
2022/05/26 13:16:22;;;;;;;0.80;0.77;;;;;;;;;;5052902;28;20736;-84
2022/05/26 13:18:51;;;;;;;2.83;1.42;;;;;;;;;;5052960;28;20221;-83
2022/05/26 13:21:18;;;;;;;1.80;1.70;;;;;;;;;;5052947;28;20237;-82
2022/05/26 13:23:45;;;;;;;2.10;1.48;;;;;;;;;;5050782;28;20213;-83
2022/05/26 13:26:14;;;;;;;0.88;0.85;;;;;;;;;;5050576;28;20242;-85
2022/05/26 13:28:42;;;;;;;0.60;0.60;;;;;;;;;;5054123;28;20225;-86
2022/05/26 13:33:57;;;;;;;0.90;0.77;;;;;;;;;;5054342;28;20189;-83
2022/05/26 13:36:28;;;;;;;1.20;0.63;;;;;;;;;;5054278;28;20317;-83
2022/05/26 13:38:55;;;;;;;1.02;0.85;;;;;;;;;;5054224;28;20243;-84
2022/05/26 13:41:25;;;;;;;1.85;0.80;;;;;;;;;;5054346;28;20233;-86
2022/05/26 13:43:52;;;;;;;1.42;0.75;;;;;;;;;;5057323;28;20259;-86
2022/05/26 13:46:23;;;;;;;1.73;1.20;;;;;;;;;;5056375;28;20234;-85
2022/05/26 13:48:54;;;;;;;0.75;0.65;;;;;;;;;;5054217;28;20265;-86
2022/05/26 13:51:22;;;;;;;2.20;0.65;;;;;;;;;;5054083;28;20737;-86
2022/05/26 13:53:50;;;;;;;1.35;0.75;;;;;;;;;;5054489;28;20214;-83
2022/05/26 13:56:23;;;;;;;1.13;0.93;;;;;;;;;;5053959;28;20241;-85
2022/05/26 13:58:52;;;;;;;0.68;0.68;;;;;;;;;;5053874;28;20234;-86
2022/05/26 14:01:23;;;;;;;2.13;0.50;;;;;;;;;;5054900;28;20229;-86
2022/05/26 14:03:54;;;;;;;2.42;0.60;;;;;;;;;;5053543;28;20225;-86
2022/05/26 14:06:29;;;;;;;2.30;0.75;;;;;;;;;;5053677;28;20237;-85
2022/05/26 14:08:57;;;;;;;1.60;0.63;;;;;;;;;;5053550;28;20226;-84
2022/05/26 14:11:28;;;;;;;0.70;0.70;;;;;;;;;;5053656;28;20254;-85
2022/05/26 14:13:57;;;;;;;0.70;0.70;;;;;;;;;;5053865;28;20253;-86
2022/05/26 14:16:27;;;;;;;2.63;0.52;;;;;;;;;;5053431;28;20770;-85
2022/05/26 14:18:57;;;;;;;0.75;0.60;;;;;;;;;;5053712;28;20280;-84
2022/05/26 14:21:28;;;;;;;0.82;0.60;;;;;;;;;;5053534;28;20240;-85
2022/05/26 14:23:57;;;;;;;0.52;0.52;;;;;;;;;;5053725;28;20206;-86
2022/05/26 14:26:32;;;;;;;3.30;0.90;;;;;;;;;;5053399;28;20241;-86
2022/05/26 14:29:01;;;;;;;2.13;1.10;;;;;;;;;;5050619;28;20786;-86
2022/05/26 14:31:29;;;;;;;2.00;1.40;;;;;;;;;;5065518;28;20225;-85
2022/05/26 14:33:58;;;;;;;1.42;1.05;;;;;;;;;;5073850;28;20296;-86
2022/05/26 14:36:25;;;;;;;1.50;0.82;;;;;;;;;;5062278;28;20719;-85
2022/05/26 14:38:52;;;;;;;1.20;1.10;;;;;;;;;;5032193;28;20234;-86
2022/05/26 14:41:19;;;;;;;0.95;0.77;;;;;;;;;;5033328;28;20242;-85
2022/05/26 14:43:47;;;;;;;2.00;0.82;;;;;;;;;;5033820;28;20211;-84
2022/05/26 14:46:16;;;;;;;1.42;0.88;;;;;;;;;;5032852;28;20397;-85
2022/05/26 14:48:43;;;;;;;5.00;0.98;;;;;;;;;;5033188;28;20729;-84
2022/05/26 14:51:10;;;;;;;1.55;0.55;;;;;;;;;;5033039;28;20242;-86
2022/05/26 14:56:22;;;;;;;1.23;0.70;;;;;;;;;;5031598;28;20231;-83
2022/05/26 14:58:49;;;;;;;1.20;0.95;;;;;;;;;;5051730;28;20226;-85
2022/05/26 15:01:18;;;;;;;1.50;0.80;;;;;;;;;;5052854;28;20241;-86
2022/05/26 15:03:45;;;;;;;2.22;0.98;;;;;;;;;;5052885;28;20202;-86
2022/05/26 15:06:12;;;;;;;3.67;1.60;;;;;;;;;;5052641;28;20238;-85
2022/05/26 15:08:42;;;;;;;2.28;1.08;;;;;;;;;;5051880;28;20226;-83
2022/05/26 15:11:09;;;;;;;1.52;1.20;;;;;;;;;;5063631;28;20252;-84
2022/05/26 15:13:37;;;;;;;2.72;1.35;;;;;;;;;;5072199;28;20219;-83
2022/05/26 15:16:04;;;;;;;1.80;1.08;;;;;;;;;;5072961;28;20240;-82
2022/05/26 15:18:33;;;;;;;1.40;0.90;;;;;;;;;;5059252;28;20233;-83
2022/05/26 15:21:00;;;;;;;2.85;1.05;;;;;;;;;;5061802;28;20225;-81
2022/05/26 15:23:27;;;;;;;2.53;0.70;;;;;;;;;;5053007;28;20580;-80
2022/05/26 15:26:11;;;;;;;0.98;0.70;;;;;;;;;;5053052;28;20245;-80
2022/05/26 15:28:38;;;;;;;6.60;0.90;;;;;;;;;;5052184;28;20705;-82
2022/05/26 15:31:06;;;;;;;1.83;0.85;;;;;;;;;;5052723;28;20260;-81
2022/05/26 15:33:35;;;;;;;1.23;0.90;;;;;;;;;;5054309;28;20213;-81
2022/05/26 15:36:03;;;;;;;1.90;0.80;;;;;;;;;;5053226;28;20607;-82
2022/05/26 15:38:34;;;;;;;2.47;0.95;;;;;;;;;;5053873;28;20226;-83
2022/05/26 15:41:01;;;;;;;3.30;1.15;;;;;;;;;;5053498;28;20245;-80
2022/05/26 15:43:29;;;;;;;3.63;1.00;;;;;;;;;;5073751;28;20209;-81